createdAt,value
2022-09-18T00:01:38.319Z,2.67
2022-09-18T00:04:07.090Z,3.45
2022-09-18T00:06:38.475Z,2.30
2022-09-18T00:09:09.221Z,2.63
2022-09-18T00:11:42.412Z,4.85
2022-09-18T00:14:11.877Z,2.42
2022-09-18T00:16:39.287Z,4.03
2022-09-18T00:19:06.575Z,5.68
2022-09-18T00:21:35.963Z,5.20
2022-09-18T00:24:03.595Z,2.05
2022-09-18T00:26:31.207Z,6.45
2022-09-18T00:28:58.925Z,4.43
2022-09-18T00:31:35.290Z,2.67
2022-09-18T00:34:05.909Z,4.07
2022-09-18T00:36:32.852Z,3.65
2022-09-18T00:39:00.005Z,2.67
2022-09-18T00:41:30.128Z,4.00
2022-09-18T00:44:22.824Z,3.17
2022-09-18T00:46:49.712Z,8.20
2022-09-18T00:49:22.098Z,5.10
2022-09-18T00:51:53.354Z,5.75
2022-09-18T00:54:20.076Z,5.85
2022-09-18T00:56:48.811Z,7.22
2022-09-18T00:59:21.855Z,5.25
2022-09-18T01:01:49.105Z,4.32
2022-09-18T01:04:16.005Z,8.68
2022-09-18T01:07:21.293Z,6.13
2022-09-18T01:09:48.490Z,13.50
2022-09-18T01:12:37.303Z,12.27
2022-09-18T01:15:05.065Z,14.40
2022-09-18T01:17:42.042Z,8.30
2022-09-18T01:20:34.697Z,6.97
2022-09-18T01:23:32.559Z,6.95
2022-09-18T01:26:25.066Z,5.65
2022-09-18T01:29:00.753Z,6.70
2022-09-18T01:31:32.135Z,8.65
2022-09-18T01:34:28.537Z,7.68
2022-09-18T01:37:04.391Z,5.55
2022-09-18T01:40:01.988Z,7.57
2022-09-18T01:42:31.267Z,8.48
2022-09-18T01:45:02.395Z,8.07
2022-09-18T01:47:35.951Z,8.25
2022-09-18T01:50:04.748Z,9.73
2022-09-18T01:52:35.931Z,10.48
2022-09-18T01:55:07.029Z,7.28
2022-09-18T01:57:44.829Z,10.10
2022-09-18T02:00:12.747Z,8.70
2022-09-18T02:03:09.790Z,9.38
2022-09-18T02:05:41.294Z,10.90
2022-09-18T02:10:44.962Z,8.32
2022-09-18T02:13:16.668Z,9.63
2022-09-18T02:15:45.712Z,10.38
2022-09-18T02:18:17.936Z,11.00
2022-09-18T02:20:46.973Z,7.47
2022-09-18T02:23:14.849Z,8.90
2022-09-18T02:25:57.609Z,11.02
2022-09-18T02:28:26.351Z,9.88
2022-09-18T02:30:53.465Z,8.65
2022-09-18T02:33:28.329Z,8.70
2022-09-18T02:36:29.169Z,9.40
2022-09-18T02:39:11.171Z,7.37
2022-09-18T02:42:02.740Z,8.93
2022-09-18T02:44:41.254Z,7.88
2022-09-18T02:47:14.087Z,8.48
2022-09-18T02:49:47.837Z,9.68
2022-09-18T02:52:39.479Z,9.80
2022-09-18T02:55:17.473Z,10.52
2022-09-18T02:57:53.474Z,11.18
2022-09-18T03:00:20.786Z,10.88
2022-09-18T03:02:50.182Z,9.50
2022-09-18T03:05:17.029Z,12.27
2022-09-18T03:07:43.868Z,10.00
2022-09-18T03:10:13.475Z,9.07
2022-09-18T03:12:40.377Z,12.93
2022-09-18T03:15:07.875Z,10.95
2022-09-18T03:17:34.815Z,7.78
2022-09-18T03:20:01.679Z,7.55
2022-09-18T03:22:28.511Z,7.38
2022-09-18T03:24:55.359Z,8.52
2022-09-18T03:27:22.297Z,10.02
2022-09-18T03:29:49.394Z,8.18
2022-09-18T03:32:16.390Z,11.15
2022-09-18T03:34:43.180Z,10.00
2022-09-18T03:37:09.967Z,9.20
2022-09-18T03:39:36.872Z,8.77
2022-09-18T03:42:03.808Z,10.05
2022-09-18T03:44:30.907Z,8.63
2022-09-18T03:46:57.825Z,9.65
2022-09-18T03:49:25.766Z,9.77
2022-09-18T03:51:52.617Z,9.50
2022-09-18T03:54:19.565Z,11.65
2022-09-18T03:56:46.411Z,7.43
2022-09-18T03:59:13.245Z,12.40
2022-09-18T04:01:40.236Z,9.25
2022-09-18T04:04:07.239Z,8.00
2022-09-18T04:06:34.241Z,7.35
2022-09-18T04:09:01.331Z,6.50
2022-09-18T04:11:28.374Z,8.13
2022-09-18T04:13:55.277Z,7.93
2022-09-18T04:16:22.289Z,8.43
2022-09-18T04:18:49.261Z,9.38
2022-09-18T04:21:16.200Z,11.68
2022-09-18T04:23:43.113Z,6.85
2022-09-18T04:26:10.518Z,9.70
2022-09-18T04:28:38.207Z,8.18
2022-09-18T04:31:05.201Z,8.63
2022-09-18T04:33:32.163Z,6.85
2022-09-18T04:35:59.054Z,7.18
2022-09-18T04:38:29.900Z,8.15
2022-09-18T04:41:01.099Z,9.40
2022-09-18T04:43:28.745Z,8.65
2022-09-18T04:45:55.845Z,9.15
2022-09-18T04:48:23.048Z,11.02
2022-09-18T04:50:50.619Z,8.18
2022-09-18T04:53:17.705Z,10.05
2022-09-18T04:55:45.368Z,7.10
2022-09-18T04:58:13.756Z,9.90
2022-09-18T05:00:40.904Z,7.80
2022-09-18T05:03:08.761Z,9.55
2022-09-18T05:05:36.266Z,9.95
2022-09-18T05:08:04.192Z,13.43
2022-09-18T05:10:31.949Z,9.95
2022-09-18T05:12:58.851Z,10.27
2022-09-18T05:15:25.743Z,12.88
2022-09-18T05:18:06.664Z,7.65
2022-09-18T05:20:36.113Z,8.63
2022-09-18T05:23:03.011Z,8.98
2022-09-18T05:25:31.183Z,9.40
2022-09-18T05:28:00.382Z,6.43
2022-09-18T05:30:27.997Z,8.93
2022-09-18T05:32:58.891Z,8.75
2022-09-18T05:35:27.726Z,7.25
2022-09-18T05:37:55.639Z,7.20
2022-09-18T05:40:25.254Z,7.72
2022-09-18T05:42:53.309Z,7.80
2022-09-18T05:45:21.445Z,6.97
2022-09-18T05:48:14.697Z,8.82
2022-09-18T05:50:43.414Z,10.10
2022-09-18T05:53:18.929Z,9.77
2022-09-18T05:55:45.884Z,8.52
2022-09-18T05:58:15.744Z,9.05
2022-09-18T06:00:44.898Z,7.72
2022-09-18T06:03:14.273Z,10.10
2022-09-18T06:05:42.409Z,9.45
2022-09-18T06:08:12.077Z,6.85
2022-09-18T06:10:41.123Z,9.50
2022-09-18T06:13:15.795Z,6.70
2022-09-18T06:15:49.186Z,6.95
2022-09-18T06:18:16.387Z,8.48
2022-09-18T06:20:45.123Z,9.43
2022-09-18T06:23:12.071Z,12.20
2022-09-18T06:25:38.962Z,6.47
2022-09-18T06:28:06.983Z,9.45
2022-09-18T06:30:36.490Z,14.65
2022-09-18T06:33:09.332Z,9.48
2022-09-18T06:35:38.772Z,7.32
2022-09-18T06:38:07.303Z,9.57
2022-09-18T06:40:35.824Z,7.22
2022-09-18T06:43:03.497Z,6.13
2022-09-18T06:45:31.483Z,8.52
2022-09-18T06:48:02.561Z,10.15
2022-09-18T06:50:30.074Z,12.02
2022-09-18T06:53:11.505Z,8.95
2022-09-18T06:55:39.234Z,6.50
2022-09-18T06:58:06.269Z,7.85
2022-09-18T07:00:33.429Z,6.88
2022-09-18T07:03:02.569Z,8.30
2022-09-18T07:05:32.682Z,8.82
2022-09-18T07:07:59.983Z,11.05
2022-09-18T07:10:27.343Z,14.20
2022-09-18T07:12:58.078Z,7.97
2022-09-18T07:15:25.595Z,9.38
2022-09-18T07:17:55.398Z,11.90
2022-09-18T07:20:22.341Z,13.30
2022-09-18T07:22:56.464Z,9.25
2022-09-18T07:25:24.327Z,12.23
2022-09-18T07:27:51.416Z,14.65
2022-09-18T07:30:18.925Z,11.90
2022-09-18T07:32:46.636Z,7.38
2022-09-18T07:35:13.538Z,11.27
2022-09-18T07:37:40.883Z,10.60
2022-09-18T07:40:09.504Z,8.32
2022-09-18T07:42:36.410Z,8.73
2022-09-18T07:45:04.029Z,9.98
2022-09-18T07:47:30.865Z,12.45
2022-09-18T07:49:57.812Z,9.05
2022-09-18T07:52:24.760Z,8.07
2022-09-18T07:54:51.807Z,8.23
2022-09-18T07:57:18.658Z,7.40
2022-09-18T07:59:45.691Z,6.35
2022-09-18T08:02:13.323Z,9.80
2022-09-18T08:04:40.301Z,5.15
2022-09-18T08:07:07.708Z,4.03
2022-09-18T08:09:34.606Z,2.65
2022-09-18T08:12:03.104Z,5.60
2022-09-18T08:14:30.279Z,5.45
2022-09-18T08:16:58.010Z,2.97
2022-09-18T08:19:25.141Z,3.70
2022-09-18T08:21:52.037Z,2.70
2022-09-18T08:24:19.200Z,4.25
2022-09-18T08:26:46.341Z,3.05
2022-09-18T08:29:19.556Z,1.98
2022-09-18T08:31:47.428Z,3.63
2022-09-18T08:34:14.753Z,4.93
2022-09-18T08:36:41.850Z,2.85
2022-09-18T08:39:08.810Z,6.22
2022-09-18T08:41:57.347Z,3.15
2022-09-18T08:44:29.066Z,4.40
2022-09-18T08:47:10.799Z,2.85
2022-09-18T08:49:53.047Z,2.67
2022-09-18T08:52:25.971Z,4.38
2022-09-18T08:55:04.982Z,2.50
2022-09-18T08:57:42.051Z,6.07
2022-09-18T09:00:20.198Z,2.58
2022-09-18T09:03:00.327Z,5.20
2022-09-18T09:05:45.587Z,2.17
2022-09-18T09:08:30.546Z,4.32
2022-09-18T09:10:57.241Z,2.78
2022-09-18T09:14:01.418Z,3.85
2022-09-18T09:16:44.807Z,5.10
2022-09-18T09:19:37.686Z,2.10
2022-09-18T09:22:17.903Z,2.75
2022-09-18T09:25:06.515Z,1.77
2022-09-18T09:27:40.212Z,3.10
2022-09-18T09:30:14.678Z,3.40
2022-09-18T09:32:48.030Z,3.78
2022-09-18T09:35:42.159Z,2.58
2022-09-18T09:38:30.496Z,3.28
2022-09-18T09:41:01.540Z,2.70
2022-09-18T09:43:35.236Z,1.63
2022-09-18T09:46:12.229Z,3.75
2022-09-18T09:48:49.319Z,2.28
2022-09-18T09:51:59.669Z,3.75
2022-09-18T09:54:26.567Z,2.95
2022-09-18T09:57:35.117Z,3.33
2022-09-18T10:00:18.204Z,2.92
2022-09-18T10:03:13.363Z,2.45
2022-09-18T10:05:53.656Z,1.02
2022-09-18T10:08:50.723Z,4.25
2022-09-18T10:11:17.922Z,2.95
2022-09-18T10:14:05.666Z,2.58
2022-09-18T10:16:44.569Z,3.80
2022-09-18T10:19:22.537Z,1.70
2022-09-18T10:21:53.482Z,1.10
2022-09-18T10:24:33.821Z,2.15
2022-09-18T10:27:11.769Z,3.70
2022-09-18T10:29:39.296Z,3.22
2022-09-18T10:32:07.153Z,1.45
2022-09-18T10:34:50.558Z,3.35
2022-09-18T10:37:29.526Z,1.45
2022-09-18T10:40:00.045Z,2.55
2022-09-18T10:42:32.982Z,1.38
2022-09-18T10:45:05.045Z,1.73
2022-09-18T10:47:34.667Z,2.53
2022-09-18T10:50:19.281Z,2.92
2022-09-18T10:52:49.799Z,1.95
2022-09-18T10:55:21.043Z,1.02
2022-09-18T11:00:24.506Z,4.25
2022-09-18T11:02:58.830Z,0.98
2022-09-18T11:05:36.130Z,3.65
2022-09-18T11:08:14.268Z,1.58
2022-09-18T11:10:48.794Z,5.68
2022-09-18T11:13:24.749Z,1.30
2022-09-18T11:16:02.694Z,1.15
2022-09-18T11:18:32.425Z,5.22
2022-09-18T11:21:04.071Z,3.25
2022-09-18T11:23:34.753Z,2.65
2022-09-18T11:26:12.550Z,2.80
2022-09-18T11:28:40.666Z,1.50
2022-09-18T11:31:18.228Z,2.65
2022-09-18T11:33:57.854Z,2.50
2022-09-18T11:36:28.129Z,2.25
2022-09-18T11:38:56.985Z,7.03
2022-09-18T11:41:35.496Z,1.33
2022-09-18T11:44:06.016Z,3.03
2022-09-18T11:46:41.894Z,5.28
2022-09-18T11:49:19.353Z,6.07
2022-09-18T11:51:48.916Z,2.63
2022-09-18T11:54:29.384Z,2.25
2022-09-18T11:57:02.011Z,5.33
2022-09-18T11:59:42.794Z,4.00
2022-09-18T12:02:39.271Z,4.90
2022-09-18T12:05:28.225Z,2.03
2022-09-18T12:08:37.333Z,2.05
2022-09-18T12:11:08.373Z,2.20
2022-09-18T12:14:00.453Z,3.10
2022-09-18T12:16:38.542Z,2.88
2022-09-18T12:19:17.075Z,1.17
2022-09-18T12:21:57.587Z,4.47
2022-09-18T12:24:24.691Z,6.43
2022-09-18T12:27:06.683Z,1.58
2022-09-18T12:29:57.122Z,1.77
2022-09-18T12:32:52.018Z,3.15
2022-09-18T12:35:42.259Z,1.17
2022-09-18T12:38:47.361Z,2.20
2022-09-18T12:41:29.042Z,3.30
2022-09-18T12:44:42.326Z,4.78
2022-09-18T12:47:56.786Z,1.90
2022-09-18T12:50:42.830Z,1.83
2022-09-18T12:53:12.641Z,2.10
2022-09-18T12:56:07.175Z,3.88
2022-09-18T12:59:04.737Z,2.47
2022-09-18T13:01:56.920Z,2.20
2022-09-18T13:04:30.458Z,2.42
2022-09-18T13:07:08.008Z,1.25
2022-09-18T13:09:44.577Z,1.88
2022-09-18T13:12:38.597Z,2.80
2022-09-18T13:15:23.624Z,4.78
2022-09-18T13:17:57.488Z,1.65
2022-09-18T13:20:44.551Z,1.48
2022-09-18T13:23:22.803Z,1.85
2022-09-18T13:25:51.903Z,2.47
2022-09-18T13:28:21.520Z,2.05
2022-09-18T13:31:21.685Z,4.30
2022-09-18T13:34:06.899Z,1.35
2022-09-18T13:36:40.017Z,0.98
2022-09-18T13:39:27.058Z,2.40
2022-09-18T13:41:56.333Z,2.22
2022-09-18T13:44:25.956Z,2.90
2022-09-18T13:46:55.187Z,1.02
2022-09-18T13:49:24.974Z,2.30
2022-09-18T13:51:51.904Z,0.57
2022-09-18T13:54:23.253Z,1.65
2022-09-18T13:57:09.710Z,1.40
2022-09-18T14:00:02.664Z,1.55
2022-09-18T14:02:41.068Z,0.80
2022-09-18T14:05:08.833Z,1.92
2022-09-18T14:07:35.678Z,1.83
2022-09-18T14:10:21.823Z,2.05
2022-09-18T14:13:38.582Z,1.35
2022-09-18T14:16:10.565Z,1.45
2022-09-18T14:18:53.465Z,1.20
2022-09-18T14:21:32.348Z,1.55
2022-09-18T14:24:36.713Z,1.02
2022-09-18T14:27:42.467Z,1.05
2022-09-18T14:30:19.343Z,2.35
2022-09-18T14:33:06.146Z,2.45
2022-09-18T14:36:02.395Z,2.33
2022-09-18T14:38:34.769Z,2.03
2022-09-18T14:41:06.167Z,2.38
2022-09-18T14:43:32.890Z,1.52
2022-09-18T14:46:00.349Z,2.83
2022-09-18T14:48:35.410Z,1.52
2022-09-18T14:51:15.868Z,1.90
2022-09-18T14:53:44.858Z,2.83
2022-09-18T14:56:18.863Z,2.47
2022-09-18T14:58:50.666Z,1.33
2022-09-18T15:01:22.379Z,2.00
2022-09-18T15:03:51.543Z,1.20
2022-09-18T15:06:21.652Z,4.55
2022-09-18T15:08:52.249Z,2.63
2022-09-18T15:11:23.779Z,3.95
2022-09-18T15:13:52.980Z,1.92
2022-09-18T15:16:27.619Z,2.55
2022-09-18T15:18:55.473Z,1.25
2022-09-18T15:21:31.088Z,3.05
2022-09-18T15:24:02.952Z,2.38
2022-09-18T15:26:33.379Z,5.88
2022-09-18T15:29:02.569Z,2.27
2022-09-18T15:31:32.063Z,1.90
2022-09-18T15:34:21.814Z,4.38
2022-09-18T15:37:00.842Z,3.20
2022-09-18T15:39:34.607Z,3.05
2022-09-18T15:42:33.909Z,1.83
2022-09-18T15:45:00.803Z,2.90
2022-09-18T15:47:37.376Z,3.65
2022-09-18T15:50:13.139Z,1.55
2022-09-18T15:52:52.248Z,1.65
2022-09-18T15:55:23.706Z,2.72
2022-09-18T15:57:59.102Z,2.92
2022-09-18T16:00:28.700Z,4.43
2022-09-18T16:02:59.077Z,3.08
2022-09-18T16:05:28.377Z,5.87
2022-09-18T16:08:05.068Z,4.55
2022-09-18T16:10:34.734Z,5.15
2022-09-18T16:13:21.825Z,2.85
2022-09-18T16:16:08.693Z,1.60
2022-09-18T16:18:55.347Z,4.75
2022-09-18T16:21:25.118Z,3.97
2022-09-18T16:23:59.531Z,2.72
2022-09-18T16:26:29.491Z,3.35
2022-09-18T16:29:02.740Z,3.08
2022-09-18T16:31:32.481Z,3.83
2022-09-18T16:34:18.903Z,3.58
2022-09-18T16:36:46.762Z,5.05
2022-09-18T16:39:32.002Z,2.92
2022-09-18T16:41:58.990Z,3.92
2022-09-18T16:44:25.826Z,4.97
2022-09-18T16:47:03.838Z,1.92
2022-09-18T16:49:37.598Z,2.42
2022-09-18T16:52:05.419Z,2.83
2022-09-18T16:54:32.802Z,2.88
2022-09-18T16:57:09.427Z,2.40
2022-09-18T16:59:40.579Z,2.60
2022-09-18T17:02:09.006Z,3.13
2022-09-18T17:04:36.611Z,2.22
2022-09-18T17:07:04.173Z,1.83
2022-09-18T17:09:31.532Z,2.90
2022-09-18T17:11:58.673Z,2.95
2022-09-18T17:14:26.196Z,3.20
2022-09-18T17:16:53.357Z,3.35
2022-09-18T17:19:20.955Z,5.15
2022-09-18T17:21:47.948Z,2.38
2022-09-18T17:24:15.137Z,7.10
2022-09-18T17:26:42.494Z,2.42
2022-09-18T17:29:11.345Z,3.20
2022-09-18T17:31:38.686Z,2.35
2022-09-18T17:34:05.958Z,2.83
2022-09-18T17:36:36.221Z,2.70
2022-09-18T17:39:04.082Z,2.17
2022-09-18T17:41:31.925Z,3.00
2022-09-18T17:43:58.902Z,6.60
2022-09-18T17:46:26.485Z,5.63
2022-09-18T17:48:58.055Z,2.53
2022-09-18T17:51:28.705Z,2.30
2022-09-18T17:54:03.084Z,3.92
2022-09-18T17:56:30.777Z,1.98
2022-09-18T17:59:02.786Z,3.88
2022-09-18T18:01:30.196Z,3.70
2022-09-18T18:03:57.763Z,2.85
2022-09-18T18:06:25.322Z,3.20
2022-09-18T18:08:52.715Z,3.40
2022-09-18T18:11:22.286Z,3.20
2022-09-18T18:13:50.584Z,5.47
2022-09-18T18:16:23.324Z,2.90
2022-09-18T18:18:51.916Z,2.63
2022-09-18T18:21:19.368Z,2.47
2022-09-18T18:23:46.681Z,5.00
2022-09-18T18:26:14.041Z,3.00
2022-09-18T18:28:42.457Z,2.22
2022-09-18T18:31:13.980Z,6.35
2022-09-18T18:33:42.851Z,3.83
2022-09-18T18:36:10.933Z,3.45
2022-09-18T18:38:38.327Z,2.67
2022-09-18T18:41:06.959Z,2.47
2022-09-18T18:43:35.855Z,3.00
2022-09-18T18:46:06.841Z,2.95
2022-09-18T18:48:34.504Z,3.55
2022-09-18T18:51:06.582Z,3.78
2022-09-18T18:53:36.134Z,4.05
2022-09-18T18:56:09.069Z,3.35
2022-09-18T18:58:37.087Z,3.88
2022-09-18T19:01:15.989Z,4.32
2022-09-18T19:03:49.465Z,3.45
2022-09-18T19:06:17.217Z,4.18
2022-09-18T19:08:46.426Z,4.30
2022-09-18T19:11:19.204Z,7.22
2022-09-18T19:13:54.343Z,5.63
2022-09-18T19:16:21.518Z,4.55
2022-09-18T19:18:56.686Z,5.78
2022-09-18T19:21:23.675Z,9.40
2022-09-18T19:23:56.710Z,10.30
2022-09-18T19:26:25.604Z,8.75
2022-09-18T19:28:55.158Z,10.57
2022-09-18T19:31:22.698Z,9.93
2022-09-18T19:33:52.677Z,8.55
2022-09-18T19:36:21.415Z,9.23
2022-09-18T19:38:56.670Z,9.18
2022-09-18T19:41:37.766Z,10.75
2022-09-18T19:44:27.152Z,5.90
2022-09-18T19:46:56.044Z,5.30
2022-09-18T19:49:29.130Z,7.90
2022-09-18T19:51:56.080Z,5.05
2022-09-18T19:54:23.643Z,8.57
2022-09-18T19:56:50.635Z,8.48
2022-09-18T19:59:17.683Z,7.47
2022-09-18T20:01:45.020Z,6.85
2022-09-18T20:04:11.987Z,6.68
2022-09-18T20:06:40.740Z,7.63
2022-09-18T20:09:07.864Z,6.07
2022-09-18T20:11:35.548Z,6.05
2022-09-18T20:14:02.486Z,8.02
2022-09-18T20:16:29.648Z,5.03
2022-09-18T20:18:56.723Z,4.80
2022-09-18T20:21:24.333Z,5.97
2022-09-18T20:23:57.694Z,7.00
2022-09-18T20:26:25.246Z,6.20
2022-09-18T20:28:52.408Z,7.15
2022-09-18T20:31:20.860Z,11.60
2022-09-18T20:33:48.074Z,6.22
2022-09-18T20:36:15.027Z,4.53
2022-09-18T20:38:42.780Z,7.70
2022-09-18T20:41:13.822Z,7.25
2022-09-18T20:43:42.508Z,8.55
2022-09-18T20:46:15.988Z,8.77
2022-09-18T20:48:50.017Z,6.65
2022-09-18T20:51:18.552Z,5.75
2022-09-18T20:53:46.787Z,5.55
2022-09-18T20:56:15.717Z,5.05
2022-09-18T20:58:42.873Z,6.20
2022-09-18T21:01:17.084Z,6.05
2022-09-18T21:03:45.519Z,7.65
2022-09-18T21:06:22.833Z,6.35
2022-09-18T21:08:53.737Z,6.25
2022-09-18T21:11:27.543Z,7.07
2022-09-18T21:14:01.062Z,7.68
2022-09-18T21:16:31.175Z,6.10
2022-09-18T21:19:00.585Z,5.63
2022-09-18T21:21:30.637Z,6.22
2022-09-18T21:24:02.281Z,4.78
2022-09-18T21:26:34.303Z,5.63
2022-09-18T21:29:25.370Z,5.93
2022-09-18T21:31:58.511Z,3.70
2022-09-18T21:34:27.958Z,3.72
2022-09-18T21:37:01.725Z,6.05
2022-09-18T21:39:30.764Z,4.38
2022-09-18T21:41:59.037Z,4.13
2022-09-18T21:44:28.082Z,6.88
2022-09-18T21:47:02.639Z,5.38
2022-09-18T21:49:30.472Z,5.75
2022-09-18T21:52:01.408Z,4.43
2022-09-18T21:54:29.013Z,4.72
2022-09-18T21:56:57.305Z,6.72
2022-09-18T21:59:26.397Z,6.47
2022-09-18T22:01:54.950Z,7.88
2022-09-18T22:04:27.612Z,6.20
2022-09-18T22:06:59.070Z,7.47
2022-09-18T22:09:35.163Z,7.55
2022-09-18T22:12:02.264Z,7.95
2022-09-18T22:14:32.479Z,7.28
2022-09-18T22:17:05.166Z,5.72
2022-09-18T22:19:34.266Z,7.05
2022-09-18T22:22:02.432Z,5.03
2022-09-18T22:24:29.687Z,5.55
2022-09-18T22:27:08.762Z,7.20
2022-09-18T22:29:38.618Z,6.05
2022-09-18T22:32:06.648Z,5.65
2022-09-18T22:34:37.075Z,6.00
2022-09-18T22:37:04.334Z,5.93
2022-09-18T22:39:31.228Z,6.28
2022-09-18T22:41:58.127Z,5.90
2022-09-18T22:44:25.723Z,5.75
2022-09-18T22:46:53.246Z,4.10
2022-09-18T22:49:22.285Z,7.13
2022-09-18T22:51:50.149Z,8.32
2022-09-18T22:54:17.653Z,11.18
2022-09-18T22:56:47.414Z,5.72
2022-09-18T22:59:17.026Z,6.10
2022-09-18T23:01:50.531Z,6.72
2022-09-18T23:04:19.658Z,8.57
2022-09-18T23:06:48.261Z,7.10
2022-09-18T23:09:17.104Z,7.07
2022-09-18T23:11:46.098Z,11.80
2022-09-18T23:14:15.539Z,6.20
2022-09-18T23:16:42.439Z,6.82
2022-09-18T23:19:14.657Z,7.65
2022-09-18T23:21:41.453Z,8.85
2022-09-18T23:24:09.466Z,8.05
2022-09-18T23:26:42.088Z,5.80
2022-09-18T23:29:15.330Z,5.53
2022-09-18T23:31:44.529Z,8.10
2022-09-18T23:34:16.393Z,5.85
2022-09-18T23:36:46.202Z,6.25
2022-09-18T23:39:18.524Z,7.18
2022-09-18T23:41:46.185Z,5.80
2022-09-18T23:44:16.115Z,11.77
2022-09-18T23:46:44.110Z,10.20
2022-09-18T23:49:12.756Z,8.88
2022-09-18T23:51:44.471Z,5.85
2022-09-18T23:54:17.447Z,7.30
2022-09-18T23:56:45.412Z,7.97
2022-09-18T23:59:13.915Z,11.40
